F/V Le Mirador — FPHO — position and weather

sailwx.info

Track history (hours):
 
Tides and Currents Weather Stations Pressure Air Temp Water Temp Dewpoint Dewpoint Depression Visibility Wind Speed Wind Dir Waves Ship Positions

F/V Le Mirador

Last reported at 2016-Feb-04 22:20 UTC. Time now 2016-Feb-10 20:07 UTC.
Position N 36°42' W 009°60'.

Length 19 m; draft 2.8 m.

Type: Fishing. MMSI: 227901000.

Date/timePositionNaut miles runAvg speedWind from/ knotsBaromVisibWave heightAir tempDewpointWater temp
2016-Feb-04 22:20N 36°42' W 009°60'8 8.8
2016-Feb-04 21:28N 36°50' W 009°59'9 9.0
2016-Feb-04 20:31N 36°58' W 009°57'9 9.0
2016-Feb-04 19:28N 37°08' W 009°54'12 9.2
2016-Feb-04 18:13N 37°19' W 009°52'7 9.0
2016-Feb-04 17:28N 37°26' W 009°51'10 9.6
2016-Feb-04 16:28N 37°35' W 009°48'9 9.0
2016-Feb-04 15:31N 37°43' W 009°47'10 9.2
2016-Feb-04 14:28N 37°53' W 009°45'9 9.2
2016-Feb-04 13:28N 38°02' W 009°43'12 8.9
2016-Feb-04 12:07N 38°14' W 009°41'5 8.0
2016-Feb-04 11:33N 38°18' W 009°40'9 9.2
2016-Feb-04 10:33N 38°27' W 009°38'9 9.2
2016-Feb-04 09:33N 38°37' W 009°38'9 9.0
2016-Feb-04 08:33N 38°46' W 009°37'9 9.3
2016-Feb-04 07:34N 38°55' W 009°38'9 9.3
2016-Feb-04 06:33N 39°04' W 009°37'10 9.5
2016-Feb-04 05:33N 39°14' W 009°37'9 9.5
2016-Feb-04 04:34N 39°23' W 009°36'9 9.1
2016-Feb-04 03:32N 39°32' W 009°34'9 9.6
2016-Feb-04 02:33N 39°41' W 009°32'10 9.7
2016-Feb-04 01:33N 39°51' W 009°29'10 9.7
2016-Feb-04 00:33N 40°00' W 009°26'10 9.6
2016-Feb-03 23:34N 40°10' W 009°25'10 9.1
2016-Feb-03 22:30N 40°19' W 009°24'8 8.8
2016-Feb-03 21:33N 40°28' W 009°24'9 9.2
2016-Feb-03 20:33N 40°37' W 009°23'9 9.2
2016-Feb-03 19:34N 40°46' W 009°23'9 8.9
2016-Feb-03 18:31N 40°55' W 009°23'9 9.4
2016-Feb-03 17:31N 41°05' W 009°23'10 9.2
2016-Feb-03 16:28N 41°14' W 009°23'8 8.9
2016-Feb-03 15:31N 41°23' W 009°23'9 9.3
2016-Feb-03 14:31N 41°32' W 009°23'9 9.4
2016-Feb-03 13:31N 41°42' W 009°23'9 9.3
2016-Feb-03 12:31N 41°51' W 009°23'384 8.3
2016-Feb-01 14:29N 46°07' W 002°46'9 8.9
2016-Feb-01 13:25N 46°12' W 002°34'10 9.0
2016-Feb-01 12:17N 46°17' W 002°21'8 9.1
2016-Feb-01 11:23N 46°21' W 002°11'7 9.0
2016-Feb-01 10:33N 46°24' W 002°01'9 9.0
2016-Feb-01 09:33N 46°28' W 001°49'3 2.5
2016-Feb-01 08:33N 46°30' W 001°47'0 0.0
2016-Feb-01 07:33N 46°30' W 001°47'0 0.0
2016-Feb-01 06:33N 46°30' W 001°47'0 0.0
2016-Jan-30 11:10N 46°30' W 001°47'0 0.0
2016-Jan-30 09:33N 46°30' W 001°47'0 0.0
2016-Jan-29 15:25N 46°30' W 001°47'0 0.0
2016-Jan-29 14:34N 46°30' W 001°47'0 0.0
2016-Jan-29 13:26N 46°30' W 001°47'0 0.0
2016-Jan-29 11:33N 46°30' W 001°47'0 0.0
2016-Jan-29 10:33N 46°30' W 001°47'0 0.0
2016-Jan-29 09:34N 46°30' W 001°47'0 0.0
2016-Jan-29 08:33N 46°30' W 001°47'0 0.0
2016-Jan-29 07:33N 46°30' W 001°47'0 0.0
2016-Jan-28 16:33N 46°30' W 001°47'0 0.0
2016-Jan-28 15:33N 46°30' W 001°47'0 0.0
2016-Jan-28 14:33N 46°30' W 001°47'0 0.0
2016-Jan-27 09:27N 46°30' W 001°47'0 0.0
2016-Jan-27 08:33N 46°30' W 001°47'0 0.0
2016-Jan-26 13:08N 46°30' W 001°47'0 0.0
2016-Jan-26 10:22N 46°30' W 001°47'0 0.0
2016-Jan-26 09:33N 46°30' W 001°47'0 0.0
2016-Jan-26 08:33N 46°30' W 001°47'  
Track history (hours):
 
Tides and Currents Weather Stations Pressure Air Temp Water Temp Dewpoint Dewpoint Depression Visibility Wind Speed Wind Dir Waves Ship Positions

F/V Le Mirador

Last reported at 2016-Feb-04 22:20 UTC. Time now 2016-Feb-10 20:07 UTC.
Position N 36°42' W 009°60'.

Length 19 m; draft 2.8 m.

Type: Fishing. MMSI: 227901000.

Date/timePositionNaut miles runAvg speedWind from/ knotsBaromVisibWave heightAir tempDewpointWater temp
2016-Feb-04 22:20N 36°42' W 009°60'8 8.8
2016-Feb-04 21:28N 36°50' W 009°59'9 9.0
2016-Feb-04 20:31N 36°58' W 009°57'9 9.0
2016-Feb-04 19:28N 37°08' W 009°54'12 9.2
2016-Feb-04 18:13N 37°19' W 009°52'7 9.0
2016-Feb-04 17:28N 37°26' W 009°51'10 9.6
2016-Feb-04 16:28N 37°35' W 009°48'9 9.0
2016-Feb-04 15:31N 37°43' W 009°47'10 9.2
2016-Feb-04 14:28N 37°53' W 009°45'9 9.2
2016-Feb-04 13:28N 38°02' W 009°43'12 8.9
2016-Feb-04 12:07N 38°14' W 009°41'5 8.0
2016-Feb-04 11:33N 38°18' W 009°40'9 9.2
2016-Feb-04 10:33N 38°27' W 009°38'9 9.2
2016-Feb-04 09:33N 38°37' W 009°38'9 9.0
2016-Feb-04 08:33N 38°46' W 009°37'9 9.3
2016-Feb-04 07:34N 38°55' W 009°38'9 9.3
2016-Feb-04 06:33N 39°04' W 009°37'10 9.5
2016-Feb-04 05:33N 39°14' W 009°37'9 9.5
2016-Feb-04 04:34N 39°23' W 009°36'9 9.1
2016-Feb-04 03:32N 39°32' W 009°34'9 9.6
2016-Feb-04 02:33N 39°41' W 009°32'10 9.7
2016-Feb-04 01:33N 39°51' W 009°29'10 9.7
2016-Feb-04 00:33N 40°00' W 009°26'10 9.6
2016-Feb-03 23:34N 40°10' W 009°25'10 9.1
2016-Feb-03 22:30N 40°19' W 009°24'8 8.8
2016-Feb-03 21:33N 40°28' W 009°24'9 9.2
2016-Feb-03 20:33N 40°37' W 009°23'9 9.2
2016-Feb-03 19:34N 40°46' W 009°23'9 8.9
2016-Feb-03 18:31N 40°55' W 009°23'9 9.4
2016-Feb-03 17:31N 41°05' W 009°23'10 9.2
2016-Feb-03 16:28N 41°14' W 009°23'8 8.9
2016-Feb-03 15:31N 41°23' W 009°23'9 9.3
2016-Feb-03 14:31N 41°32' W 009°23'9 9.4
2016-Feb-03 13:31N 41°42' W 009°23'9 9.3
2016-Feb-03 12:31N 41°51' W 009°23'384 8.3
2016-Feb-01 14:29N 46°07' W 002°46'9 8.9
2016-Feb-01 13:25N 46°12' W 002°34'10 9.0
2016-Feb-01 12:17N 46°17' W 002°21'8 9.1
2016-Feb-01 11:23N 46°21' W 002°11'7 9.0
2016-Feb-01 10:33N 46°24' W 002°01'9 9.0
2016-Feb-01 09:33N 46°28' W 001°49'3 2.5
2016-Feb-01 08:33N 46°30' W 001°47'0 0.0
2016-Feb-01 07:33N 46°30' W 001°47'0 0.0
2016-Feb-01 06:33N 46°30' W 001°47'0 0.0
2016-Jan-30 11:10N 46°30' W 001°47'0 0.0
2016-Jan-30 09:33N 46°30' W 001°47'0 0.0
2016-Jan-29 15:25N 46°30' W 001°47'0 0.0
2016-Jan-29 14:34N 46°30' W 001°47'0 0.0
2016-Jan-29 13:26N 46°30' W 001°47'0 0.0
2016-Jan-29 11:33N 46°30' W 001°47'0 0.0
2016-Jan-29 10:33N 46°30' W 001°47'0 0.0
2016-Jan-29 09:34N 46°30' W 001°47'0 0.0
2016-Jan-29 08:33N 46°30' W 001°47'0 0.0
2016-Jan-29 07:33N 46°30' W 001°47'0 0.0
2016-Jan-28 16:33N 46°30' W 001°47'0 0.0
2016-Jan-28 15:33N 46°30' W 001°47'0 0.0
2016-Jan-28 14:33N 46°30' W 001°47'0 0.0
2016-Jan-27 09:27N 46°30' W 001°47'0 0.0
2016-Jan-27 08:33N 46°30' W 001°47'0 0.0
2016-Jan-26 13:08N 46°30' W 001°47'0 0.0
2016-Jan-26 10:22N 46°30' W 001°47'0 0.0
2016-Jan-26 09:33N 46°30' W 001°47'0 0.0
2016-Jan-26 08:33N 46°30' W 001°47'  

Dump ship's entire track history